Time;durP1;ratioP1;P1;durP2;ratioP2;P2;SDS_P1;SDS_P2;PMS_P1;PMS_P2;Temp;Humidity;BMP_temperature;BMP_pressure;BME280_temperature;BME280_humidity;BME280_pressure;Samples;Min_cycle;Max_cycle;Signal;HPM_P1;HPM_P2
2022/02/17 00:01:48;;;;;;;2.80;0.40;;;10.60;99.90;;;8.90;100.00;97350.09;4846651;28;20081;-83
2022/02/17 00:04:14;;;;;;;3.05;0.40;;;10.30;99.90;;;8.68;100.00;97277.00;4872755;28;20035;-81
2022/02/17 00:06:40;;;;;;;4.35;0.50;;;;;;;8.56;100.00;97295.53;4866124;28;20027;-88
2022/02/17 00:09:31;;;;;;;3.03;0.57;;;;;;;8.45;100.00;97347.31;4868156;28;20035;-92
2022/02/17 00:12:02;;;;;;;7.30;0.82;;;;;;;8.39;100.00;97310.16;4911517;28;20796;-89
2022/02/17 00:14:33;;;;;;;4.00;0.50;;;9.90;99.90;;;8.30;100.00;97307.56;4908128;28;20608;-87
2022/02/17 00:17:00;;;;;;;0.52;0.20;;;;;;;8.19;100.00;97287.59;4921593;28;20045;-89
2022/02/17 00:19:26;;;;;;;1.40;0.30;;;9.60;99.90;;;8.13;100.00;97314.34;4911542;28;21121;-89
2022/02/17 00:21:51;;;;;;;2.50;0.40;;;9.60;99.90;;;8.12;100.00;97315.31;4907157;28;20019;-88
2022/02/17 00:24:27;;;;;;;2.85;0.40;;;9.60;99.90;;;8.10;100.00;97309.38;4866766;28;20050;-89
2022/02/17 00:26:54;;;;;;;5.43;0.47;;;9.50;99.90;;;7.99;100.00;97305.94;4874287;28;20034;-89
2022/02/17 00:29:20;;;;;;;5.00;0.70;;;9.50;99.90;;;7.95;100.00;97317.69;4859375;28;20023;-90
2022/02/17 00:31:56;;;;;;;3.92;0.40;;;;;;;7.87;100.00;97298.38;4862940;28;20042;-87
2022/02/17 00:34:22;;;;;;;6.20;0.60;;;9.30;99.90;;;7.87;100.00;97282.66;4908520;28;20038;-87
2022/02/17 00:36:48;;;;;;;6.75;0.65;;;9.40;99.90;;;7.84;100.00;97260.19;4906888;28;20081;-88
2022/02/17 00:39:14;;;;;;;12.90;0.75;;;;;;;7.85;100.00;97272.31;4887518;28;20053;-87
2022/02/17 00:41:50;;;;;;;5.95;1.05;;;;;;;7.80;100.00;97283.22;4885798;28;20042;-85
2022/02/17 00:44:17;;;;;;;11.40;1.67;;;9.20;99.90;;;7.77;100.00;97283.47;4852243;28;20628;-87
2022/02/17 00:46:55;;;;;;;5.38;1.15;;;9.20;99.90;;;7.81;100.00;97311.03;4885187;28;20072;-86
2022/02/17 00:49:31;;;;;;;13.13;1.58;;;9.30;99.90;;;7.86;100.00;97333.38;4906330;28;20022;-86
2022/02/17 00:51:57;;;;;;;18.47;2.37;;;9.30;99.90;;;7.93;100.00;97337.13;4882550;28;20512;-83
2022/02/17 00:54:24;;;;;;;12.80;1.45;;;9.30;99.90;;;8.05;100.00;97370.06;4875791;28;20275;-86
2022/02/17 00:56:50;;;;;;;14.75;2.22;;;9.40;99.90;;;8.08;100.00;97393.38;4883420;28;20050;-87
2022/02/17 00:59:26;;;;;;;16.48;2.33;;;;;;;8.12;100.00;97376.41;4876722;28;20035;-87
2022/02/17 01:01:52;;;;;;;16.75;2.08;;;9.40;99.90;;;8.12;100.00;97383.44;4872089;28;20044;-86
2022/02/17 01:04:29;;;;;;;17.13;2.00;;;;;;;8.11;100.00;97400.13;4816207;28;20090;-88
2022/02/17 01:06:55;;;;;;;18.50;2.20;;;9.50;99.90;;;8.13;100.00;97413.94;4869605;28;20383;-84
2022/02/17 01:09:21;;;;;;;14.40;2.05;;;;;;;8.13;100.00;97429.66;4928196;28;20041;-85
2022/02/17 01:11:56;;;;;;;15.40;2.40;;;9.50;99.90;;;8.13;100.00;97404.28;4941566;28;20471;-84
2022/02/17 01:14:22;;;;;;;17.83;2.28;;;9.50;99.90;;;8.20;100.00;97396.69;4866039;28;20030;-85
2022/02/17 01:16:48;;;;;;;25.70;2.67;;;9.60;99.90;;;8.21;100.00;97407.03;4881361;28;20059;-87
2022/02/17 01:19:23;;;;;;;18.60;2.65;;;;;;;8.22;100.00;97390.34;4954009;28;20368;-86
2022/02/17 01:21:50;;;;;;;27.65;3.72;;;9.60;99.90;;;8.25;100.00;97388.41;4886803;28;20511;-85
2022/02/17 01:24:16;;;;;;;21.33;3.33;;;9.70;99.90;;;8.28;100.00;97385.53;4884955;28;20046;-84
2022/02/17 01:26:51;;;;;;;24.88;3.05;;;9.60;99.90;;;8.32;100.00;97379.03;4929329;28;20039;-85
2022/02/17 01:29:17;;;;;;;22.85;3.92;;;9.60;99.90;;;8.30;100.00;97368.69;4897616;28;20172;-86
2022/02/17 01:31:44;;;;;;;21.77;3.30;;;;;;;8.29;100.00;97360.94;4878724;28;20527;-86
2022/02/17 01:34:10;;;;;;;25.63;3.65;;;9.60;99.90;;;8.24;100.00;97369.22;4871859;28;20049;-83
2022/02/17 01:36:41;;;;;;;26.30;2.97;;;9.60;99.90;;;8.17;100.00;97362.91;4880335;28;20038;-83
2022/02/17 01:39:07;;;;;;;24.95;3.28;;;9.60;99.90;;;8.17;100.00;97362.91;4858696;28;20064;-82
2022/02/17 01:41:33;;;;;;;36.20;4.57;;;9.50;99.90;;;8.16;100.00;97356.00;4881564;28;20061;-84
2022/02/17 01:44:03;;;;;;;33.83;4.25;;;9.50;99.90;;;8.14;100.00;97353.53;4870830;28;20027;-83
2022/02/17 01:46:50;;;;;;;31.30;3.72;;;9.50;99.90;;;8.05;100.00;97338.63;4853795;28;20109;-83
2022/02/17 01:49:15;;;;;;;19.75;2.90;;;9.40;99.90;;;7.94;100.00;97351.84;4864729;28;20038;-83
2022/02/17 01:51:42;;;;;;;31.40;4.10;;;9.30;99.90;;;7.86;100.00;97346.47;4886829;28;20049;-83
2022/02/17 01:54:09;;;;;;;30.38;3.83;;;9.30;99.90;;;7.82;100.00;97338.09;4867982;28;20025;-83
2022/02/17 01:56:45;;;;;;;34.10;3.90;;;9.20;99.90;;;7.81;100.00;97346.88;4892053;28;20089;-81
2022/02/17 01:59:11;;;;;;;;;;;9.20;99.90;;;7.72;100.00;97358.19;4877822;28;20045;-83
2022/02/17 02:01:37;;;;;;;34.80;3.70;;;9.10;99.90;;;7.69;99.57;97358.44;4870743;28;19917;-82
2022/02/17 02:04:08;;;;;;;27.70;4.65;;;9.10;99.90;;;7.65;100.00;97363.16;4876850;28;20026;-83
2022/02/17 02:06:35;;;;;;;25.60;3.85;;;9.10;99.90;;;7.63;99.68;97356.38;4879868;28;20130;-81
2022/02/17 02:09:03;;;;;;;30.58;3.90;;;9.00;99.90;;;7.56;99.62;97364.78;4859884;28;20030;-84
2022/02/17 02:11:30;;;;;;;24.77;3.42;;;9.00;99.90;;;7.59;99.43;97364.50;4893934;28;20030;-82
2022/02/17 02:14:17;;;;;;;36.70;4.72;;;9.00;99.90;;;7.62;99.15;97359.94;4875754;28;20039;-83
2022/02/17 02:16:44;;;;;;;35.53;4.82;;;9.00;99.90;;;7.62;99.52;97383.53;4850344;28;20039;-82
2022/02/17 02:19:12;;;;;;;29.65;4.53;;;;;;;7.63;99.61;97378.16;4865405;28;20042;-84
2022/02/17 02:21:38;;;;;;;34.45;4.78;;;9.10;99.90;;;7.70;99.07;97368.78;4866909;28;20031;-82
2022/02/17 02:24:12;;;;;;;31.73;4.63;;;9.10;99.90;;;7.75;98.35;97373.63;4872457;28;20570;-82
2022/02/17 02:26:38;;;;;;;39.55;4.53;;;9.10;99.90;;;7.78;97.43;97362.88;4883647;28;20113;-81
2022/02/17 02:29:04;;;;;;;22.15;2.92;;;9.20;99.90;;;7.75;97.64;97371.84;4882556;28;20026;-83
2022/02/17 02:31:36;;;;;;;31.08;3.95;;;9.10;99.90;;;7.73;97.77;97354.59;4869837;28;20023;-83
2022/02/17 02:34:02;;;;;;;31.52;4.03;;;;;;;7.76;97.24;97355.16;4872079;28;20035;-84
2022/02/17 02:36:28;;;;;;;32.05;4.45;;;9.10;99.90;;;7.78;97.17;97355.03;4876050;28;20695;-82
2022/02/17 02:38:54;;;;;;;35.78;4.78;;;9.10;99.90;;;7.75;96.68;97356.13;4849130;28;20098;-83
2022/02/17 02:41:19;;;;;;;35.53;5.25;;;9.10;99.90;;;7.75;96.47;97369.22;4868356;28;20714;-85
2022/02/17 02:43:46;;;;;;;32.72;5.53;;;9.20;99.90;;;7.78;96.75;97362.88;4858627;28;20109;-83
2022/02/17 02:46:21;;;;;;;36.92;4.85;;;9.20;99.90;;;7.80;97.06;97360.97;4862404;28;20026;-83
2022/02/17 02:48:47;;;;;;;37.40;5.53;;;9.20;99.90;;;7.81;96.93;97359.97;4884531;28;20398;-83
2022/02/17 02:51:13;;;;;;;32.40;5.47;;;9.20;99.90;;;7.84;96.71;97356.25;4875822;28;20023;-83
2022/02/17 02:53:48;;;;;;;36.85;4.20;;;9.20;99.90;;;7.90;96.00;97363.56;4877784;28;20082;-84
2022/02/17 02:56:13;;;;;;;34.25;4.70;;;9.30;99.90;;;7.89;95.31;97367.16;4877962;28;20407;-83
2022/02/17 02:58:39;;;;;;;34.90;4.45;;;9.30;99.90;;;7.92;95.86;97359.84;4876119;28;20117;-84
2022/02/17 03:01:05;;;;;;;34.15;4.80;;;9.30;99.90;;;7.94;95.52;97367.56;4854924;28;20031;-83
2022/02/17 03:03:37;;;;;;;32.08;4.60;;;9.40;99.90;;;7.98;95.16;97356.69;4865876;28;20026;-83
2022/02/17 03:06:03;;;;;;;37.20;4.45;;;9.40;99.90;;;8.04;94.89;97351.88;4859668;28;20129;-84
2022/02/17 03:08:29;;;;;;;38.80;4.78;;;9.40;99.90;;;8.06;93.95;97366.50;4881758;28;20113;-84
2022/02/17 03:10:54;;;;;;;38.38;4.93;;;9.40;99.90;;;8.08;93.49;97359.31;4869685;28;20442;-83
2022/02/17 03:13:20;;;;;;;38.00;5.15;;;9.40;99.90;;;8.11;93.40;97366.06;4883668;28;20503;-83
2022/02/17 03:15:46;;;;;;;32.88;4.45;;;9.50;99.90;;;8.07;92.76;97357.66;4872117;28;20039;-83
2022/02/17 03:18:16;;;;;;;31.63;4.40;;;9.50;99.90;;;8.07;92.25;97362.06;4866159;28;20030;-83
2022/02/17 03:20:42;;;;;;;33.90;5.30;;;9.40;99.90;;;8.08;92.07;97355.84;4888190;28;20120;-82
2022/02/17 03:23:08;;;;;;;31.45;4.43;;;9.40;99.90;;;8.06;91.73;97363.06;4891479;28;20087;-83
2022/02/17 03:25:34;;;;;;;32.17;5.20;;;9.50;99.90;;;8.10;91.53;97346.91;4873508;28;20124;-84
2022/02/17 03:28:00;;;;;;;32.63;4.70;;;9.40;99.90;;;8.05;91.60;97350.91;4883635;28;20045;-82
2022/02/17 03:30:26;;;;;;;27.58;3.78;;;9.40;99.90;;;7.99;91.37;97342.63;4872223;28;20030;-83
2022/02/17 03:33:02;;;;;;;34.85;4.30;;;9.40;99.90;;;8.05;91.78;97348.28;4880440;28;20031;-84
2022/02/17 03:35:28;;;;;;;30.15;4.63;;;9.40;99.90;;;8.07;91.02;97356.81;4891821;28;20554;-84
2022/02/17 03:37:54;;;;;;;39.35;5.22;;;9.40;99.90;;;8.11;90.67;97360.81;4873492;28;20042;-83
2022/02/17 03:40:29;;;;;;;33.28;5.13;;;9.50;99.90;;;8.13;90.66;97354.47;4908859;28;20061;-83
2022/02/17 03:42:56;;;;;;;37.40;5.05;;;9.50;99.90;;;8.12;90.60;97338.88;4875852;28;20132;-84
2022/02/17 03:45:22;;;;;;;40.40;5.53;;;9.50;99.90;;;8.14;91.01;97353.53;4895712;28;20065;-84
2022/02/17 03:47:57;;;;;;;51.70;5.47;;;9.50;99.90;;;8.12;91.49;97344.13;4873760;28;20023;-82
2022/02/17 03:50:23;;;;;;;28.88;4.65;;;9.50;99.90;;;8.10;91.23;97348.69;4869578;28;20023;-83
2022/02/17 03:52:49;;;;;;;30.33;5.13;;;9.50;99.90;;;8.04;91.60;97350.06;4871212;28;20102;-83
2022/02/17 03:55:22;;;;;;;28.85;4.22;;;9.40;99.90;;;8.00;91.20;97344.28;4843714;28;20114;-82
2022/02/17 03:57:48;;;;;;;30.08;4.15;;;9.40;99.90;;;7.99;90.58;97334.78;4872755;28;20043;-84
2022/02/17 04:00:15;;;;;;;24.75;3.40;;;9.40;99.90;;;8.00;90.19;97344.28;4878596;28;20027;-82
2022/02/17 04:02:41;;;;;;;27.23;5.57;;;9.40;99.90;;;7.98;89.69;97343.59;4859308;28;20114;-82
2022/02/17 04:05:12;;;;;;;22.00;3.78;;;9.40;99.90;;;7.93;88.83;97335.31;4874615;28;20105;-84
2022/02/17 04:07:39;;;;;;;25.52;4.75;;;9.40;99.90;;;7.87;88.61;97338.47;4881991;23;20139;-82
2022/02/17 04:10:06;;;;;;;21.08;3.67;;;9.30;99.90;;;7.80;88.48;97338.22;4878806;28;20030;-83
2022/02/17 04:12:32;;;;;;;27.55;3.40;;;9.30;99.90;;;7.75;88.34;97343.03;4991909;28;20102;-84
2022/02/17 04:14:57;;;;;;;26.15;3.75;;;9.20;99.90;;;7.66;88.75;97348.25;4886117;28;20112;-84
2022/02/17 04:17:32;;;;;;;41.95;4.72;;;;;;;7.62;87.53;97342.44;4898317;28;20022;-82
2022/02/17 04:19:58;;;;;;;31.38;3.60;;;9.10;99.90;;;7.60;87.36;97342.59;4886465;28;20061;-81
2022/02/17 04:22:24;;;;;;;29.90;3.72;;;9.00;99.90;;;7.63;86.66;97351.16;4868011;28;20032;-83
2022/02/17 04:24:50;;;;;;;31.05;3.92;;;9.10;99.90;;;7.65;87.10;97362.31;4891991;28;20035;-83
2022/02/17 04:27:23;;;;;;;22.92;3.35;;;9.10;99.90;;;7.67;86.77;97355.16;4908084;28;20042;-82
2022/02/17 04:29:49;;;;;;;27.80;4.55;;;9.10;99.90;;;7.74;86.22;97371.97;4836581;28;20078;-82
2022/02/17 04:32:15;;;;;;;28.23;3.80;;;9.10;99.90;;;7.74;85.53;97369.34;4879436;28;20027;-83
2022/02/17 04:34:49;;;;;;;26.58;2.50;;;9.10;99.90;;;7.66;85.23;97366.59;4926441;28;20139;-83
2022/02/17 04:37:15;;;;;;;30.52;4.15;;;9.10;99.90;;;7.68;84.67;97383.81;4892064;28;20043;-82
2022/02/17 04:39:41;;;;;;;23.77;3.53;;;9.10;99.90;;;7.69;84.84;97389.88;4876546;28;20471;-82
2022/02/17 04:42:20;;;;;;;19.50;3.25;;;9.00;99.90;;;7.56;85.07;97384.91;4854302;28;20097;-83
2022/02/17 04:44:59;;;;;;;12.30;2.00;;;8.90;99.90;;;7.43;84.67;97398.22;4884246;28;20039;-84
2022/02/17 04:47:25;;;;;;;10.88;1.40;;;8.90;99.90;;;7.28;84.96;97395.16;4866374;28;20031;-82
2022/02/17 04:49:51;;;;;;;24.42;2.97;;;8.80;99.90;;;7.24;85.90;97409.44;4871350;28;20042;-83
2022/02/17 04:52:17;;;;;;;22.83;3.15;;;8.80;99.90;;;7.29;86.73;97403.81;4891839;28;20023;-82
2022/02/17 04:54:52;;;;;;;28.83;3.83;;;8.80;99.90;;;7.35;86.38;97409.34;4863431;28;20048;-83
2022/02/17 04:57:18;;;;;;;30.55;3.90;;;8.70;99.90;;;7.23;87.11;97414.81;4864295;28;20117;-84
2022/02/17 04:59:44;;;;;;;28.73;4.07;;;8.70;99.90;;;7.21;87.57;97408.88;4865475;28;20110;-82
2022/02/17 05:02:18;;;;;;;26.20;3.90;;;8.70;99.90;;;7.19;88.12;97411.63;4857142;28;20026;-85
2022/02/17 05:04:44;;;;;;;29.63;3.72;;;8.60;99.90;;;7.13;88.82;97405.13;4866770;28;20106;-83
2022/02/17 05:07:10;;;;;;;27.08;4.20;;;8.60;99.90;;;7.15;88.49;97421.53;4888266;28;20040;-83
2022/02/17 05:09:36;;;;;;;28.92;3.92;;;8.60;99.90;;;7.17;88.52;97421.38;4877197;28;20037;-83
2022/02/17 05:12:10;;;;;;;21.02;3.75;;;8.60;99.90;;;7.11;89.25;97433.22;4858737;28;20365;-83
2022/02/17 05:14:36;;;;;;;26.20;3.38;;;8.60;99.90;;;7.03;90.63;97414.72;4876798;28;20096;-81
2022/02/17 05:17:02;;;;;;;26.92;4.03;;;8.50;99.90;;;6.98;91.90;97416.91;4872629;28;20090;-84
2022/02/17 05:19:28;;;;;;;25.88;3.20;;;8.50;99.90;;;6.87;92.09;97425.66;4864564;28;20056;-83
2022/02/17 05:21:54;;;;;;;27.40;3.40;;;8.40;99.90;;;6.90;93.15;97419.34;4875589;28;20475;-84
2022/02/17 05:24:29;;;;;;;20.92;2.75;;;8.40;99.90;;;6.86;93.50;97441.47;4865282;28;20027;-83
2022/02/17 05:26:55;;;;;;;23.45;3.65;;;8.30;99.90;;;6.90;93.64;97446.31;4887729;28;20045;-83
2022/02/17 05:29:31;;;;;;;23.13;3.25;;;8.30;99.90;;;6.85;94.05;97442.44;4876366;28;20046;-83
2022/02/17 05:31:57;;;;;;;25.13;2.63;;;8.30;99.90;;;6.79;95.90;97446.38;4888331;28;20022;-83
2022/02/17 05:34:23;;;;;;;17.92;2.90;;;8.20;99.90;;;6.67;96.47;97447.41;4873084;28;20035;-81
2022/02/17 05:36:48;;;;;;;18.17;3.17;;;8.20;99.90;;;6.56;97.63;97436.03;4903523;28;20057;-83
2022/02/17 05:39:14;;;;;;;17.92;2.80;;;8.10;99.90;;;6.51;98.44;97446.06;4879275;28;20074;-83
2022/02/17 05:41:50;;;;;;;22.42;4.45;;;8.00;99.90;;;6.42;99.31;97435.53;4862355;28;20037;-83
2022/02/17 05:44:17;;;;;;;;;;;8.00;99.90;;;6.33;100.00;97437.94;4873890;28;20035;-84
2022/02/17 05:46:51;;;;;;;22.73;3.78;;;7.90;99.90;;;6.31;100.00;97446.88;4879544;28;19906;-82
2022/02/17 05:49:17;;;;;;;28.73;3.20;;;7.90;99.90;;;6.27;100.00;97448.06;4893200;28;20030;-86
2022/02/17 05:51:46;;;;;;;26.60;3.35;;;7.80;99.90;;;6.29;100.00;97448.78;4900595;28;20030;-83
2022/02/17 05:54:16;;;;;;;23.70;3.03;;;7.80;99.90;;;6.29;100.00;97448.78;4874652;28;20034;-84
2022/02/17 05:56:42;;;;;;;21.85;3.50;;;7.80;99.90;;;6.27;100.00;97454.13;4870640;28;20697;-84
2022/02/17 05:59:08;;;;;;;29.70;3.47;;;7.80;99.90;;;6.25;100.00;97447.38;4843115;28;20126;-85
2022/02/17 06:01:35;;;;;;;23.10;3.05;;;7.80;99.90;;;6.27;100.00;97461.97;4857986;28;20043;-85
2022/02/17 06:04:00;;;;;;;19.00;2.90;;;7.70;99.90;;;6.22;100.00;97458.03;4888607;28;20031;-84
2022/02/17 06:06:36;;;;;;;21.45;3.10;;;7.80;99.90;;;6.17;100.00;97447.97;4901454;28;20130;-86
2022/02/17 06:09:04;;;;;;;24.70;3.17;;;7.70;99.90;;;6.20;100.00;97455.56;4868636;28;20034;-85
2022/02/17 06:11:30;;;;;;;29.08;4.53;;;7.70;99.90;;;6.11;100.00;97454.53;4834178;28;20763;-84
2022/02/17 06:14:05;;;;;;;28.83;3.70;;;7.70;99.90;;;6.09;100.00;97455.59;4864381;28;20050;-82
2022/02/17 06:16:30;;;;;;;27.58;3.28;;;7.70;99.90;;;6.14;100.00;97440.41;4874381;28;20450;-84
2022/02/17 06:18:56;;;;;;;23.20;3.42;;;7.60;99.90;;;6.09;100.00;97439.91;4879823;28;20038;-83
2022/02/17 06:21:22;;;;;;;29.95;3.88;;;7.60;99.90;;;6.06;100.00;97421.91;4889226;28;20034;-85
2022/02/17 06:23:57;;;;;;;25.58;2.97;;;7.60;99.90;;;6.07;100.00;97431.38;4888604;28;20023;-83
2022/02/17 06:26:23;;;;;;;25.17;2.92;;;7.60;99.90;;;6.08;100.00;97446.09;4859678;28;20034;-83
2022/02/17 06:28:49;;;;;;;27.30;3.25;;;7.60;99.90;;;6.10;100.00;97449.44;4871100;28;20041;-83
2022/02/17 06:31:23;;;;;;;25.77;3.28;;;;;;;6.05;100.00;97451.59;4880399;28;20022;-82
2022/02/17 06:33:49;;;;;;;18.10;2.53;;;7.60;99.90;;;6.04;100.00;97452.53;4897215;28;20049;-83
2022/02/17 06:36:17;;;;;;;25.60;3.10;;;7.60;99.90;;;6.06;100.00;97456.66;4896843;28;20451;-83
2022/02/17 06:38:49;;;;;;;21.50;3.10;;;;;;;6.08;100.00;97444.31;4903055;28;20527;-84
2022/02/17 06:41:20;;;;;;;24.95;3.65;;;7.50;99.90;;;6.06;100.00;97443.59;4881427;28;20125;-84
2022/02/17 06:43:56;;;;;;;25.95;3.35;;;7.60;99.90;;;6.06;100.00;97461.91;4857784;28;20117;-84
2022/02/17 06:46:22;;;;;;;18.00;2.85;;;7.60;99.90;;;6.06;100.00;97474.97;4884442;28;20030;-84
2022/02/17 06:48:48;;;;;;;21.08;2.92;;;7.60;99.90;;;6.05;100.00;97480.31;4875461;28;20040;-85
2022/02/17 06:51:15;;;;;;;26.52;3.08;;;7.60;99.90;;;6.07;100.00;97488.84;4847708;28;20121;-83
2022/02/17 06:53:49;;;;;;;25.45;2.70;;;7.60;99.90;;;6.05;100.00;97488.16;4902887;28;20488;-84
2022/02/17 06:56:15;;;;;;;21.95;2.88;;;7.50;99.90;;;6.01;100.00;97505.84;4854267;28;20164;-84
2022/02/17 06:58:41;;;;;;;30.52;2.92;;;7.50;99.90;;;5.96;100.00;97494.91;4855341;28;20035;-83
2022/02/17 07:01:16;;;;;;;23.75;2.90;;;7.50;99.90;;;5.93;100.00;97498.56;4867973;28;20036;-82
2022/02/17 07:03:41;;;;;;;23.50;2.65;;;7.40;99.90;;;5.85;100.00;97505.34;4845583;28;20051;-82
2022/02/17 07:06:08;;;;;;;20.63;2.80;;;7.40;99.90;;;5.79;100.00;97513.66;4881781;28;20089;-83
2022/02/17 07:08:34;;;;;;;11.32;1.63;;;7.30;99.90;;;5.69;100.00;97508.34;4885607;28;20041;-82
2022/02/17 07:11:08;;;;;;;14.90;1.60;;;7.20;99.90;;;5.64;100.00;97515.72;4976555;28;20062;-82
2022/02/17 07:13:34;;;;;;;16.67;2.47;;;7.20;99.90;;;5.61;100.00;97521.16;4902001;28;20280;-83
2022/02/17 07:16:01;;;;;;;17.65;2.17;;;7.20;99.90;;;5.60;100.00;97522.13;4873859;28;20042;-83
2022/02/17 07:18:33;;;;;;;23.38;2.75;;;7.10;99.90;;;5.59;100.00;97525.66;4870112;28;20527;-84
2022/02/17 07:21:00;;;;;;;23.10;2.40;;;7.10;99.90;;;5.62;100.00;97528.03;4890868;28;20113;-82
2022/02/17 07:23:27;;;;;;;19.40;2.90;;;7.10;99.90;;;5.60;100.00;97522.94;4857801;28;20031;-83
2022/02/17 07:26:03;;;;;;;18.27;2.80;;;7.10;99.90;;;5.60;100.00;97527.34;4898910;28;20030;-83
2022/02/17 07:28:29;;;;;;;10.93;1.80;;;7.10;99.90;;;5.54;100.00;97539.06;4869922;28;20457;-83
2022/02/17 07:30:56;;;;;;;15.00;1.60;;;7.10;99.90;;;5.55;100.00;97549.41;4885717;28;20036;-83
2022/02/17 07:33:34;;;;;;;13.98;2.03;;;7.10;99.90;;;5.60;100.00;97545.59;4883582;28;20046;-83
2022/02/17 07:36:00;;;;;;;17.90;2.00;;;7.10;99.90;;;5.55;100.00;97559.84;4862322;28;20039;-84
2022/02/17 07:38:26;;;;;;;14.20;1.73;;;7.10;99.90;;;5.60;100.00;97571.72;4888399;28;20545;-83
2022/02/17 07:41:01;;;;;;;8.98;1.13;;;7.10;99.90;;;5.58;100.00;97573.59;4888616;28;20035;-82
2022/02/17 07:43:27;;;;;;;14.13;1.92;;;7.10;99.90;;;5.52;100.00;97570.50;4892871;28;20033;-83
2022/02/17 07:45:53;;;;;;;15.05;2.05;;;7.00;99.90;;;5.53;100.00;97580.00;4876233;28;20019;-83
2022/02/17 07:48:29;;;;;;;13.75;1.70;;;7.10;99.90;;;5.62;100.00;97577.63;4892486;28;20037;-86
2022/02/17 07:50:56;;;;;;;12.70;1.30;;;7.10;99.90;;;5.61;100.00;97586.41;4896925;28;20037;-83
2022/02/17 07:53:28;;;;;;;10.25;1.40;;;7.10;99.90;;;5.60;100.00;97582.16;4895074;28;20025;-83
2022/02/17 07:55:54;;;;;;;12.57;1.35;;;7.10;99.90;;;5.66;100.00;97608.63;4881993;28;20479;-84
2022/02/17 07:58:20;;;;;;;11.25;1.38;;;7.10;99.90;;;5.65;100.00;97598.28;4867601;28;20031;-82
2022/02/17 08:00:46;;;;;;;5.65;1.15;;;7.10;99.90;;;5.65;100.00;97598.28;4889980;28;20097;-82
2022/02/17 08:03:13;;;;;;;7.28;1.40;;;7.20;99.90;;;5.70;100.00;97601.34;4894046;28;20113;-83
2022/02/17 08:05:49;;;;;;;14.13;1.77;;;7.20;99.90;;;5.78;100.00;97614.66;4868131;28;20031;-83
2022/02/17 08:08:15;;;;;;;6.45;1.10;;;7.20;99.90;;;5.83;100.00;97627.34;4857675;28;20051;-84
2022/02/17 08:10:41;;;;;;;10.02;1.77;;;7.20;99.90;;;5.85;100.00;97615.88;4881000;28;20026;-85
2022/02/17 08:13:18;;;;;;;12.82;1.70;;;7.20;99.90;;;5.80;100.00;97623.22;4874370;28;20570;-85
2022/02/17 08:15:44;;;;;;;10.80;1.58;;;7.30;99.90;;;5.88;100.00;97649.56;4881103;28;20156;-83
2022/02/17 08:18:10;;;;;;;5.50;1.08;;;7.30;99.90;;;5.83;100.00;97656.94;4870205;28;20539;-83
2022/02/17 08:20:45;;;;;;;7.25;1.27;;;7.30;99.90;;;5.95;100.00;97657.78;4876069;28;20042;-83
2022/02/17 08:23:11;;;;;;;9.32;1.42;;;7.30;99.90;;;5.95;100.00;97666.47;4877434;28;20027;-83
2022/02/17 08:25:40;;;;;;;4.65;1.00;;;7.30;99.90;;;5.91;100.00;97678.06;4868165;28;20134;-83
2022/02/17 08:28:13;;;;;;;11.32;1.30;;;7.30;99.90;;;5.94;100.00;97672.66;4885941;28;20028;-83
2022/02/17 08:30:39;;;;;;;12.80;1.60;;;7.40;99.90;;;6.02;100.00;97690.31;4882623;28;20025;-83
2022/02/17 08:33:06;;;;;;;14.02;1.85;;;7.40;99.90;;;6.03;100.00;97693.78;4859447;28;20027;-83
2022/02/17 08:35:39;;;;;;;14.65;1.95;;;7.40;99.90;;;5.91;100.00;97688.50;4877104;28;20069;-82
2022/02/17 08:38:36;;;;;;;27.38;2.97;;;7.40;99.90;;;5.87;100.00;97707.94;4896379;28;20035;-85
2022/02/17 08:41:02;;;;;;;14.38;2.10;;;7.30;99.90;;;5.85;100.00;97720.31;4863511;28;20043;-85
2022/02/17 08:43:28;;;;;;;18.05;1.77;;;7.30;99.90;;;5.82;100.00;97732.75;4851254;28;20438;-85
2022/02/17 08:46:21;;;;;;;9.30;1.63;;;;;;;5.78;100.00;97742.59;4892106;28;20039;-88
2022/02/17 08:48:48;;;;;;;11.02;2.15;;;;;;;5.74;100.00;97743.78;4855484;28;20062;-86
2022/02/17 08:51:17;;;;;;;15.23;1.55;;;7.20;99.90;;;5.79;100.00;97754.72;4876609;28;20039;-87
2022/02/17 08:53:48;;;;;;;15.30;2.00;;;;;;;5.76;100.00;97776.66;4872356;28;20031;-87
2022/02/17 08:56:14;;;;;;;15.25;1.83;;;7.30;99.90;;;5.81;100.00;97771.09;4854370;28;20043;-85
2022/02/17 08:59:11;;;;;;;11.05;1.92;;;;;;;5.79;100.00;97773.00;4883603;28;20077;-88
2022/02/17 09:01:38;;;;;;;16.38;2.58;;;7.20;99.90;;;5.74;100.00;97791.63;4854571;28;20027;-83
2022/02/17 09:04:09;;;;;;;10.20;1.38;;;;;;;5.72;100.00;97792.66;4868916;28;20045;-84
2022/02/17 09:06:35;;;;;;;11.35;1.60;;;7.20;99.90;;;5.70;100.00;97799.75;4917146;28;20054;-83
2022/02/17 09:09:03;;;;;;;17.73;1.80;;;7.20;99.90;;;5.69;100.00;97814.59;4838816;28;20027;-83
2022/02/17 09:11:30;;;;;;;12.35;1.50;;;7.20;99.90;;;5.73;100.00;97838.72;4884955;28;20042;-84
2022/02/17 09:14:08;;;;;;;8.95;1.40;;;7.20;99.90;;;5.72;100.00;97835.28;4887901;28;20069;-83
2022/02/17 09:16:45;;;;;;;13.85;1.48;;;7.20;99.90;;;5.75;100.00;97842.06;4884630;28;20056;-82
2022/02/17 09:19:14;;;;;;;7.05;1.00;;;7.20;99.90;;;5.68;100.00;97853.88;4888999;28;21018;-82
2022/02/17 09:21:50;;;;;;;12.93;1.67;;;7.10;99.90;;;5.71;100.00;97854.47;4895341;28;20031;-81
2022/02/17 09:24:26;;;;;;;;;;;7.10;99.90;;;5.60;100.00;97877.09;4909535;28;20037;-83
2022/02/17 09:26:52;;;;;;;11.20;1.58;;;7.10;99.90;;;5.64;100.00;97896.81;4858785;28;19914;-84
2022/02/17 09:29:18;;;;;;;9.07;1.60;;;7.10;99.90;;;5.79;100.00;97897.47;4870656;28;20037;-83
2022/02/17 09:31:44;;;;;;;6.35;1.02;;;7.30;99.90;;;6.19;100.00;97908.50;4837211;28;20559;-82
2022/02/17 09:34:16;;;;;;;8.43;1.33;;;7.50;99.90;;;6.52;100.00;97910.41;4893521;28;20045;-83
2022/02/17 09:36:45;;;;;;;11.85;2.20;;;7.60;99.90;;;6.66;100.00;97916.38;4881364;28;20340;-82
2022/02/17 09:39:14;;;;;;;6.10;1.02;;;7.70;99.90;;;6.68;100.00;97930.19;4859226;28;20031;-83
2022/02/17 09:41:48;;;;;;;10.70;1.10;;;7.80;99.90;;;6.76;100.00;97933.88;4877535;28;20030;-82
2022/02/17 09:44:24;;;;;;;11.15;1.35;;;8.00;99.90;;;7.01;100.00;97945.09;4880228;28;20124;-81
2022/02/17 09:46:50;;;;;;;7.90;1.50;;;8.10;99.90;;;7.25;100.00;97937.13;4920973;28;20094;-82
2022/02/17 09:49:22;;;;;;;12.48;1.52;;;8.30;99.90;;;7.42;100.00;97955.94;4860584;28;20078;-83
2022/02/17 09:52:08;;;;;;;12.27;1.95;;;8.40;99.90;;;7.13;100.00;97969.50;4870362;28;20046;-81
2022/02/17 09:54:37;;;;;;;9.48;1.85;;;8.30;99.90;;;6.84;100.00;97984.75;4870334;28;20498;-84
2022/02/17 09:57:04;;;;;;;9.15;1.73;;;;;;;6.60;100.00;97987.44;4877388;28;20038;-81
2022/02/17 09:59:38;;;;;;;6.80;1.20;;;;;;;6.47;100.00;97982.28;4882795;28;20034;-83
2022/02/17 10:02:23;;;;;;;12.80;2.13;;;7.90;99.90;;;6.51;100.00;98022.94;4907688;28;20085;-82
2022/02/17 10:04:58;;;;;;;12.95;1.45;;;7.80;99.90;;;6.21;100.00;98037.25;4889723;28;20027;-82
2022/02/17 10:07:37;;;;;;;12.10;1.73;;;7.60;99.90;;;5.86;100.00;98055.41;4875039;28;20078;-79
2022/02/17 10:10:07;;;;;;;9.75;1.75;;;7.30;99.90;;;5.47;100.00;98083.31;4889663;28;20075;-82
2022/02/17 10:13:01;;;;;;;8.07;1.00;;;7.00;99.90;;;5.21;100.00;98080.69;4872385;28;20519;-81
2022/02/17 10:15:39;;;;;;;4.63;0.80;;;6.80;99.90;;;5.21;100.00;98106.78;4899398;28;20034;-81
2022/02/17 10:18:13;;;;;;;4.68;1.02;;;6.80;99.90;;;5.24;100.00;98116.16;4879732;28;20083;-81
2022/02/17 10:21:13;;;;;;;3.25;0.65;;;6.70;99.90;;;5.19;100.00;98146.94;4852145;28;20047;-80
2022/02/17 10:23:52;;;;;;;3.50;0.50;;;6.60;99.90;;;5.12;100.00;98170.81;4904874;28;20094;-82
2022/02/17 10:26:35;;;;;;;3.88;0.70;;;6.50;99.90;;;4.89;100.00;98161.03;4904274;28;20027;-81
2022/02/17 10:32:16;;;;;;;3.53;0.55;;;6.30;99.90;;;4.75;100.00;98200.16;4842380;28;20938;-82
2022/02/17 10:35:05;;;;;;;2.60;0.73;;;6.20;99.90;;;4.74;100.00;98201.94;4890941;28;20141;-81
2022/02/17 10:37:55;;;;;;;1.38;0.38;;;6.30;99.90;;;4.86;100.00;98223.78;4869690;28;20047;-81
2022/02/17 10:40:42;;;;;;;1.05;0.50;;;6.30;99.90;;;4.87;100.00;98254.16;4846472;28;20524;-83
2022/02/17 10:43:14;;;;;;;2.70;0.43;;;6.30;99.90;;;4.88;100.00;98254.06;4866404;28;20053;-83
2022/02/17 10:45:52;;;;;;;4.22;0.75;;;6.30;99.90;;;4.83;100.00;98263.09;4924307;28;20031;-82